Brownville Junction, Maine
Current Conditions -  °F | °C
As of 12:53 PM on Friday 28 Nov 2014 (Local Time) from KMLT Reporting Station
Broken Clouds Broken Clouds  
Wind Chill: 17°   Ceiling: 10000
Heat Index: 24°   Visibility: 10mi
Dew Point:   Wind: 6mph
Humidity: 51%   Direction: 300°WNW
Pressure: 29.99"   Gusts: NA
Location:  45.35°N, 69.05°W
Report Text: KMLT 281753Z AUTO 30005KT 10SM BKN100 M04/M13 A2999 RMK AO2 SLP169 T10441133 11039 21133 56016
Loading
Personal Weather Stations






























Interactive Weather Map New forecast layout! Learn more

10-Day Weather Forecast

Advertisements
Track Severe Weather on mobile